Fort Garland, CO (81133)

9:54 AM MST on February 19, 2017 (GMT -0700)
HW 160 East of Alamosa | | Change Station

Elev 7543 ft 37.47 °N, 105.74 °W | Updated 22 seconds ago

Mostly Cloudy
Mostly Cloudy
47.3 °F
Feels Like 47 °F
N
3.0
Wind Variable Wind from East

Today
High -- | Low -- °F
--% Chance of Precip.
Yesterday
High -- | Low -- °F
Precip. -- in
Pressure 29.74 in
Visibility 10.0 miles
Clouds Scattered Clouds 6000 ft
Windchill 47 °F
Dew Point 29 °F
Humidity 49%
Rainfall 0.00 in
Snow Depth Not available.
6:45 AM 5:45 PM
Last Quarter, 42% visible
METAR KALS 191652Z AUTO 00000KT 10SM SCT060 03/M02 A2980 RMK AO2 SLP069 T00331017
Pressure 29.74 in
Visibility 10.0 miles
Clouds Scattered Clouds 6000 ft
Windchill 47 °F
Dew Point 29 °F
Humidity 49%
Rainfall 0.00 in
Snow Depth Not available.
6:45 AM 5:45 PM
Last Quarter, 42% visible
METAR KALS 191652Z AUTO 00000KT 10SM SCT060 03/M02 A2980 RMK AO2 SLP069 T00331017

Get Your Daily Forecast Email!

Thanks for signing up!

Be on the lookout for a verification email in your inbox.

You'll start receiving the daily forecast at 8 AM.

×

10-Day Weather Forecast

Almanac

Astronomy

Feb. 19, 2017 Rise Set
Actual Time
Civil Twilight
Nautical Twilight
Astronomical Twilight
Moon
Length of Visible Light
Length of Day
Tomorrow will be .
, % of the Moon is Illuminated

Today's Extremes

State Highs State Lows

Community

WunderPhotos

Upload Photos

1,962,540 photos uploaded!

WunderBlog® & News

Nearby

Air Quality

  Air Quality AQ Index Pollutant
Not available.

Snow Depth

Station Depth Elevation

Earthquake Activity

City Distance Mag. Time & Date
Minimum magnitude displayed is 2.5.

Coastal Water Temperatures

Place Temperature

Stations

Nearby Weather Stations

Station Location Temp. Windchill Dew Point Humidity Wind Precip. Elev Updated Type
                   

Watches & Warnings

There are currently no watches in effect.